sensor_id;sensor_type;location;lat;lon;timestamp;pressure;altitude;pressure_sealevel;temperature;humidity
70488;BME280;57976;48.174;16.370;2023-12-20T00:01:52;99128.13;;;1.54;100.00
70488;BME280;57976;48.174;16.370;2023-12-20T00:03:57;99130.89;;;1.56;100.00
70488;BME280;57976;48.174;16.370;2023-12-20T00:06:02;99124.27;;;1.57;100.00
70488;BME280;57976;48.174;16.370;2023-12-20T00:08:07;99131.55;;;1.58;100.00
70488;BME280;57976;48.174;16.370;2023-12-20T00:10:12;99133.96;;;1.57;100.00
70488;BME280;57976;48.174;16.370;2023-12-20T00:12:17;99127.31;;;1.55;100.00
70488;BME280;57976;48.174;16.370;2023-12-20T00:14:22;99132.58;;;1.53;100.00
70488;BME280;57976;48.174;16.370;2023-12-20T00:16:26;99142.86;;;1.48;100.00
70488;BME280;57976;48.174;16.370;2023-12-20T00:18:31;99146.83;;;1.45;100.00
70488;BME280;57976;48.174;16.370;2023-12-20T00:20:36;99139.83;;;1.41;100.00
70488;BME280;57976;48.174;16.370;2023-12-20T00:22:40;99142.52;;;1.39;100.00
70488;BME280;57976;48.174;16.370;2023-12-20T00:24:45;99144.04;;;1.39;100.00
70488;BME280;57976;48.174;16.370;2023-12-20T00:26:50;99134.66;;;1.40;100.00
70488;BME280;57976;48.174;16.370;2023-12-20T00:28:54;99143.70;;;1.37;100.00
70488;BME280;57976;48.174;16.370;2023-12-20T00:30:59;99141.61;;;1.35;100.00
70488;BME280;57976;48.174;16.370;2023-12-20T00:33:04;99138.13;;;1.33;100.00
70488;BME280;57976;48.174;16.370;2023-12-20T00:35:09;99132.98;;;1.31;100.00
70488;BME280;57976;48.174;16.370;2023-12-20T00:37:14;99132.56;;;1.28;100.00
70488;BME280;57976;48.174;16.370;2023-12-20T00:39:19;99123.65;;;1.22;100.00
70488;BME280;57976;48.174;16.370;2023-12-20T00:41:23;99121.67;;;1.21;100.00
70488;BME280;57976;48.174;16.370;2023-12-20T00:43:28;99122.35;;;1.16;100.00
70488;BME280;57976;48.174;16.370;2023-12-20T00:45:33;99128.91;;;1.15;100.00
70488;BME280;57976;48.174;16.370;2023-12-20T00:47:37;99135.48;;;1.14;100.00
70488;BME280;57976;48.174;16.370;2023-12-20T00:49:42;99136.70;;;1.14;100.00
70488;BME280;57976;48.174;16.370;2023-12-20T00:51:51;99132.20;;;1.16;100.00
70488;BME280;57976;48.174;16.370;2023-12-20T00:53:55;99132.39;;;1.19;100.00
70488;BME280;57976;48.174;16.370;2023-12-20T00:56:00;99140.98;;;1.22;100.00
70488;BME280;57976;48.174;16.370;2023-12-20T00:58:05;99148.69;;;1.29;100.00
70488;BME280;57976;48.174;16.370;2023-12-20T01:00:11;99146.35;;;1.34;100.00
70488;BME280;57976;48.174;16.370;2023-12-20T01:02:16;99143.98;;;1.36;100.00
70488;BME280;57976;48.174;16.370;2023-12-20T01:04:21;99144.94;;;1.43;100.00
70488;BME280;57976;48.174;16.370;2023-12-20T01:06:25;99149.25;;;1.47;100.00
70488;BME280;57976;48.174;16.370;2023-12-20T01:08:30;99160.08;;;1.47;100.00
70488;BME280;57976;48.174;16.370;2023-12-20T01:10:35;99148.21;;;1.48;100.00
70488;BME280;57976;48.174;16.370;2023-12-20T01:12:39;99139.02;;;1.53;100.00
70488;BME280;57976;48.174;16.370;2023-12-20T01:14:44;99131.73;;;1.58;100.00
70488;BME280;57976;48.174;16.370;2023-12-20T01:16:49;99118.14;;;1.63;100.00
70488;BME280;57976;48.174;16.370;2023-12-20T01:18:53;99117.81;;;1.69;100.00
70488;BME280;57976;48.174;16.370;2023-12-20T01:21:02;99117.77;;;1.77;100.00
70488;BME280;57976;48.174;16.370;2023-12-20T01:23:07;99124.31;;;1.81;100.00
70488;BME280;57976;48.174;16.370;2023-12-20T01:25:12;99131.61;;;1.82;100.00
70488;BME280;57976;48.174;16.370;2023-12-20T01:27:17;99119.42;;;1.83;100.00
70488;BME280;57976;48.174;16.370;2023-12-20T01:29:21;99110.23;;;1.86;100.00
70488;BME280;57976;48.174;16.370;2023-12-20T01:31:26;99116.81;;;1.90;100.00
70488;BME280;57976;48.174;16.370;2023-12-20T01:33:31;99106.76;;;1.93;100.00
70488;BME280;57976;48.174;16.370;2023-12-20T01:35:36;99109.16;;;1.98;100.00
70488;BME280;57976;48.174;16.370;2023-12-20T01:37:40;99103.86;;;2.04;100.00
70488;BME280;57976;48.174;16.370;2023-12-20T01:39:45;99103.83;;;2.09;100.00
70488;BME280;57976;48.174;16.370;2023-12-20T01:41:50;99099.80;;;2.16;100.00
70488;BME280;57976;48.174;16.370;2023-12-20T01:43:55;99097.80;;;2.26;100.00
70488;BME280;57976;48.174;16.370;2023-12-20T01:45:59;99095.24;;;2.34;100.00
70488;BME280;57976;48.174;16.370;2023-12-20T01:48:06;99084.85;;;2.38;100.00
70488;BME280;57976;48.174;16.370;2023-12-20T01:50:11;99086.40;;;2.43;100.00
70488;BME280;57976;48.174;16.370;2023-12-20T01:52:16;99088.23;;;2.47;100.00
70488;BME280;57976;48.174;16.370;2023-12-20T01:54:21;99084.05;;;2.49;100.00
70488;BME280;57976;48.174;16.370;2023-12-20T01:56:28;99079.63;;;2.48;100.00
70488;BME280;57976;48.174;16.370;2023-12-20T01:58:33;99074.03;;;2.46;100.00
70488;BME280;57976;48.174;16.370;2023-12-20T02:00:38;99070.69;;;2.46;100.00
70488;BME280;57976;48.174;16.370;2023-12-20T02:02:44;99068.04;;;2.44;100.00
70488;BME280;57976;48.174;16.370;2023-12-20T02:04:52;99064.04;;;2.41;100.00
70488;BME280;57976;48.174;16.370;2023-12-20T02:06:57;99061.94;;;2.34;100.00
70488;BME280;57976;48.174;16.370;2023-12-20T02:09:03;99054.59;;;2.30;100.00
70488;BME280;57976;48.174;16.370;2023-12-20T02:11:08;99041.35;;;2.21;100.00
70488;BME280;57976;48.174;16.370;2023-12-20T02:13:12;99033.50;;;2.14;100.00
70488;BME280;57976;48.174;16.370;2023-12-20T02:15:17;99030.93;;;2.09;100.00
70488;BME280;57976;48.174;16.370;2023-12-20T02:17:23;99029.88;;;2.03;100.00
70488;BME280;57976;48.174;16.370;2023-12-20T02:19:28;99027.04;;;1.96;100.00
70488;BME280;57976;48.174;16.370;2023-12-20T02:21:34;99024.61;;;1.91;100.00
70488;BME280;57976;48.174;16.370;2023-12-20T02:23:39;99023.05;;;1.93;100.00
70488;BME280;57976;48.174;16.370;2023-12-20T02:25:44;99019.29;;;1.97;100.00
70488;BME280;57976;48.174;16.370;2023-12-20T02:27:49;99013.98;;;2.01;100.00
70488;BME280;57976;48.174;16.370;2023-12-20T02:29:55;99007.65;;;2.08;100.00
70488;BME280;57976;48.174;16.370;2023-12-20T02:31:59;99004.96;;;2.18;100.00
70488;BME280;57976;48.174;16.370;2023-12-20T02:34:04;98996.33;;;2.33;100.00
70488;BME280;57976;48.174;16.370;2023-12-20T02:36:09;98995.20;;;2.47;100.00
70488;BME280;57976;48.174;16.370;2023-12-20T02:38:13;98992.55;;;2.59;100.00
70488;BME280;57976;48.174;16.370;2023-12-20T02:40:18;98990.80;;;2.72;100.00
70488;BME280;57976;48.174;16.370;2023-12-20T02:42:23;98987.96;;;2.81;100.00
70488;BME280;57976;48.174;16.370;2023-12-20T02:44:28;98989.33;;;2.89;100.00
70488;BME280;57976;48.174;16.370;2023-12-20T02:46:32;98988.16;;;2.99;100.00
70488;BME280;57976;48.174;16.370;2023-12-20T02:48:37;98985.77;;;3.05;100.00
70488;BME280;57976;48.174;16.370;2023-12-20T02:50:42;98985.86;;;3.06;100.00
70488;BME280;57976;48.174;16.370;2023-12-20T02:52:47;98980.44;;;3.04;99.99
70488;BME280;57976;48.174;16.370;2023-12-20T02:54:51;98978.65;;;2.99;99.77
70488;BME280;57976;48.174;16.370;2023-12-20T02:56:56;98977.86;;;2.98;99.72
70488;BME280;57976;48.174;16.370;2023-12-20T02:59:01;98979.67;;;3.03;99.44
70488;BME280;57976;48.174;16.370;2023-12-20T03:01:06;98981.46;;;3.11;99.11
70488;BME280;57976;48.174;16.370;2023-12-20T03:03:10;98982.81;;;3.13;97.95
70488;BME280;57976;48.174;16.370;2023-12-20T03:05:15;98973.52;;;3.11;97.37
70488;BME280;57976;48.174;16.370;2023-12-20T03:07:20;98970.11;;;3.09;97.07
70488;BME280;57976;48.174;16.370;2023-12-20T03:09:25;98971.02;;;3.08;96.72
70488;BME280;57976;48.174;16.370;2023-12-20T03:11:30;98966.56;;;3.09;96.41
70488;BME280;57976;48.174;16.370;2023-12-20T03:13:34;98963.20;;;3.01;95.42
70488;BME280;57976;48.174;16.370;2023-12-20T03:15:39;98957.17;;;2.83;94.75
70488;BME280;57976;48.174;16.370;2023-12-20T03:17:44;98963.54;;;2.65;94.49
70488;BME280;57976;48.174;16.370;2023-12-20T03:19:49;98973.52;;;2.50;94.51
70488;BME280;57976;48.174;16.370;2023-12-20T03:21:54;98974.48;;;2.41;94.48
70488;BME280;57976;48.174;16.370;2023-12-20T03:23:59;98980.26;;;2.24;94.02
70488;BME280;57976;48.174;16.370;2023-12-20T03:26:05;98978.34;;;2.05;94.17
70488;BME280;57976;48.174;16.370;2023-12-20T03:28:12;98974.59;;;1.87;94.95
70488;BME280;57976;48.174;16.370;2023-12-20T03:30:19;98976.06;;;1.76;95.49
70488;BME280;57976;48.174;16.370;2023-12-20T03:32:24;98973.34;;;1.67;96.10
70488;BME280;57976;48.174;16.370;2023-12-20T03:34:29;98974.43;;;1.59;96.80
70488;BME280;57976;48.174;16.370;2023-12-20T03:36:34;98978.70;;;1.61;97.34
70488;BME280;57976;48.174;16.370;2023-12-20T03:38:38;98982.58;;;1.57;96.73
70488;BME280;57976;48.174;16.370;2023-12-20T03:40:43;98981.85;;;1.52;97.14
70488;BME280;57976;48.174;16.370;2023-12-20T03:42:48;98979.15;;;1.51;98.06
70488;BME280;57976;48.174;16.370;2023-12-20T03:44:53;98978.27;;;1.56;98.48
70488;BME280;57976;48.174;16.370;2023-12-20T03:46:57;98969.98;;;1.62;98.89
70488;BME280;57976;48.174;16.370;2023-12-20T03:49:02;98966.38;;;1.68;98.40
70488;BME280;57976;48.174;16.370;2023-12-20T03:51:08;98965.94;;;1.74;98.65
70488;BME280;57976;48.174;16.370;2023-12-20T03:53:13;98970.14;;;1.84;98.38
70488;BME280;57976;48.174;16.370;2023-12-20T03:55:17;98973.51;;;1.89;97.91
70488;BME280;57976;48.174;16.370;2023-12-20T03:57:22;98970.80;;;1.90;97.46
70488;BME280;57976;48.174;16.370;2023-12-20T03:59:27;98968.13;;;1.89;96.63
70488;BME280;57976;48.174;16.370;2023-12-20T04:01:32;98971.02;;;1.83;95.72
70488;BME280;57976;48.174;16.370;2023-12-20T04:03:37;98969.57;;;1.73;95.19
70488;BME280;57976;48.174;16.370;2023-12-20T04:05:42;98969.77;;;1.64;95.25
70488;BME280;57976;48.174;16.370;2023-12-20T04:07:47;98967.56;;;1.55;95.32
70488;BME280;57976;48.174;16.370;2023-12-20T04:09:52;98966.87;;;1.41;95.61
70488;BME280;57976;48.174;16.370;2023-12-20T04:11:57;98970.61;;;1.28;96.49
70488;BME280;57976;48.174;16.370;2023-12-20T04:14:01;98962.96;;;1.22;97.41
70488;BME280;57976;48.174;16.370;2023-12-20T04:16:07;98963.64;;;1.20;98.25
70488;BME280;57976;48.174;16.370;2023-12-20T04:18:11;98962.85;;;1.20;98.56
70488;BME280;57976;48.174;16.370;2023-12-20T04:20:16;98965.83;;;1.23;99.64
70488;BME280;57976;48.174;16.370;2023-12-20T04:22:22;98963.48;;;1.27;99.78
70488;BME280;57976;48.174;16.370;2023-12-20T04:24:26;98961.67;;;1.33;100.00
70488;BME280;57976;48.174;16.370;2023-12-20T04:26:31;98961.52;;;1.40;100.00
70488;BME280;57976;48.174;16.370;2023-12-20T04:28:36;98964.51;;;1.49;100.00
70488;BME280;57976;48.174;16.370;2023-12-20T04:30:41;98964.31;;;1.58;100.00
70488;BME280;57976;48.174;16.370;2023-12-20T04:32:45;98964.68;;;1.68;99.90
70488;BME280;57976;48.174;16.370;2023-12-20T04:34:50;98970.63;;;1.78;99.57
70488;BME280;57976;48.174;16.370;2023-12-20T04:36:55;98963.80;;;1.83;99.10
70488;BME280;57976;48.174;16.370;2023-12-20T04:39:00;98963.65;;;1.88;98.75
70488;BME280;57976;48.174;16.370;2023-12-20T04:41:04;98961.91;;;1.91;98.66
70488;BME280;57976;48.174;16.370;2023-12-20T04:43:09;98960.58;;;1.97;98.81
70488;BME280;57976;48.174;16.370;2023-12-20T04:45:14;98954.55;;;2.06;99.20
70488;BME280;57976;48.174;16.370;2023-12-20T04:47:18;98956.41;;;2.19;99.37
70488;BME280;57976;48.174;16.370;2023-12-20T04:49:23;98957.71;;;2.32;98.96
70488;BME280;57976;48.174;16.370;2023-12-20T04:51:28;98953.58;;;2.45;97.83
70488;BME280;57976;48.174;16.370;2023-12-20T04:53:33;98960.10;;;2.53;97.21
70488;BME280;57976;48.174;16.370;2023-12-20T04:55:37;98961.62;;;2.65;97.72
70488;BME280;57976;48.174;16.370;2023-12-20T04:57:42;98954.86;;;2.77;97.56
70488;BME280;57976;48.174;16.370;2023-12-20T04:59:47;98957.42;;;2.89;96.96
70488;BME280;57976;48.174;16.370;2023-12-20T05:01:52;98958.39;;;3.02;97.34
70488;BME280;57976;48.174;16.370;2023-12-20T05:03:57;98958.22;;;3.16;97.14
70488;BME280;57976;48.174;16.370;2023-12-20T05:06:01;98961.19;;;3.31;97.11
70488;BME280;57976;48.174;16.370;2023-12-20T05:08:07;98956.30;;;3.47;97.31
70488;BME280;57976;48.174;16.370;2023-12-20T05:10:12;98952.33;;;3.69;96.98
70488;BME280;57976;48.174;16.370;2023-12-20T05:12:17;98950.05;;;3.96;97.38
70488;BME280;57976;48.174;16.370;2023-12-20T05:14:21;98943.23;;;4.21;96.76
70488;BME280;57976;48.174;16.370;2023-12-20T05:16:26;98942.02;;;4.45;96.27
70488;BME280;57976;48.174;16.370;2023-12-20T05:18:31;98938.41;;;4.66;95.86
70488;BME280;57976;48.174;16.370;2023-12-20T05:20:35;98942.96;;;4.83;95.18
70488;BME280;57976;48.174;16.370;2023-12-20T05:22:40;98946.17;;;4.98;95.17
70488;BME280;57976;48.174;16.370;2023-12-20T05:24:45;98947.39;;;5.10;94.63
70488;BME280;57976;48.174;16.370;2023-12-20T05:26:50;98948.48;;;5.19;94.08
70488;BME280;57976;48.174;16.370;2023-12-20T05:28:57;98947.88;;;5.24;93.92
70488;BME280;57976;48.174;16.370;2023-12-20T05:31:02;98949.14;;;5.27;93.15
70488;BME280;57976;48.174;16.370;2023-12-20T05:33:07;98948.77;;;5.24;93.06
70488;BME280;57976;48.174;16.370;2023-12-20T05:35:12;98946.52;;;5.23;93.20
70488;BME280;57976;48.174;16.370;2023-12-20T05:37:16;98946.06;;;5.25;93.86
70488;BME280;57976;48.174;16.370;2023-12-20T05:39:21;98944.91;;;5.29;94.79
70488;BME280;57976;48.174;16.370;2023-12-20T05:41:26;98945.18;;;5.37;95.49
70488;BME280;57976;48.174;16.370;2023-12-20T05:43:30;98942.02;;;5.44;95.63
70488;BME280;57976;48.174;16.370;2023-12-20T05:45:35;98950.61;;;5.51;95.74
70488;BME280;57976;48.174;16.370;2023-12-20T05:47:40;98952.06;;;5.58;95.80
70488;BME280;57976;48.174;16.370;2023-12-20T05:49:45;98949.96;;;5.65;95.77
70488;BME280;57976;48.174;16.370;2023-12-20T05:51:50;98947.03;;;5.75;96.13
70488;BME280;57976;48.174;16.370;2023-12-20T05:53:54;98947.41;;;5.85;96.12
70488;BME280;57976;48.174;16.370;2023-12-20T05:55:59;98947.52;;;5.95;95.89
70488;BME280;57976;48.174;16.370;2023-12-20T05:58:04;98946.40;;;6.04;95.65
70488;BME280;57976;48.174;16.370;2023-12-20T06:00:11;98949.15;;;6.13;95.72
70488;BME280;57976;48.174;16.370;2023-12-20T06:02:17;98951.63;;;6.25;95.92
70488;BME280;57976;48.174;16.370;2023-12-20T06:04:22;98962.39;;;6.35;95.51
70488;BME280;57976;48.174;16.370;2023-12-20T06:06:27;98960.02;;;6.44;95.78
70488;BME280;57976;48.174;16.370;2023-12-20T06:08:32;98959.94;;;6.55;95.66
70488;BME280;57976;48.174;16.370;2023-12-20T06:10:36;98962.33;;;6.65;94.91
70488;BME280;57976;48.174;16.370;2023-12-20T06:12:41;98960.70;;;6.74;95.10
70488;BME280;57976;48.174;16.370;2023-12-20T06:14:46;98957.42;;;6.83;94.86
70488;BME280;57976;48.174;16.370;2023-12-20T06:16:50;98958.73;;;6.91;94.49
70488;BME280;57976;48.174;16.370;2023-12-20T06:18:55;98958.52;;;7.00;93.88
70488;BME280;57976;48.174;16.370;2023-12-20T06:21:00;98955.51;;;7.12;93.50
70488;BME280;57976;48.174;16.370;2023-12-20T06:23:05;98956.48;;;7.24;92.96
70488;BME280;57976;48.174;16.370;2023-12-20T06:25:10;98956.80;;;7.35;91.57
70488;BME280;57976;48.174;16.370;2023-12-20T06:27:14;98964.02;;;7.52;90.83
70488;BME280;57976;48.174;16.370;2023-12-20T06:29:19;98961.39;;;7.68;89.77
70488;BME280;57976;48.174;16.370;2023-12-20T06:31:24;98963.57;;;7.85;87.21
70488;BME280;57976;48.174;16.370;2023-12-20T06:33:28;98967.48;;;8.03;87.31
70488;BME280;57976;48.174;16.370;2023-12-20T06:35:33;98969.81;;;8.15;85.74
70488;BME280;57976;48.174;16.370;2023-12-20T06:37:40;98974.81;;;8.28;84.14
70488;BME280;57976;48.174;16.370;2023-12-20T06:39:45;98973.47;;;8.39;82.82
70488;BME280;57976;48.174;16.370;2023-12-20T06:41:50;98975.70;;;8.49;82.94
70488;BME280;57976;48.174;16.370;2023-12-20T06:43:56;98982.48;;;8.60;81.66
70488;BME280;57976;48.174;16.370;2023-12-20T06:46:01;98982.08;;;8.68;81.59
70488;BME280;57976;48.174;16.370;2023-12-20T06:48:07;98986.65;;;8.74;81.79
70488;BME280;57976;48.174;16.370;2023-12-20T06:50:12;98985.02;;;8.78;81.82
70488;BME280;57976;48.174;16.370;2023-12-20T06:52:16;98981.61;;;8.82;81.57
70488;BME280;57976;48.174;16.370;2023-12-20T06:54:21;98983.08;;;8.85;81.21
70488;BME280;57976;48.174;16.370;2023-12-20T06:56:26;98985.44;;;8.88;80.82
70488;BME280;57976;48.174;16.370;2023-12-20T06:58:30;98980.27;;;8.92;81.12
70488;BME280;57976;48.174;16.370;2023-12-20T07:00:35;98965.65;;;8.95;80.87
70488;BME280;57976;48.174;16.370;2023-12-20T07:02:40;98958.27;;;9.00;81.35
70488;BME280;57976;48.174;16.370;2023-12-20T07:04:45;98944.87;;;9.05;80.69
70488;BME280;57976;48.174;16.370;2023-12-20T07:06:50;98949.00;;;9.08;80.94
70488;BME280;57976;48.174;16.370;2023-12-20T07:08:54;98951.00;;;9.14;80.80
70488;BME280;57976;48.174;16.370;2023-12-20T07:10:59;98948.83;;;9.18;80.28
70488;BME280;57976;48.174;16.370;2023-12-20T07:13:04;98941.56;;;9.20;79.67
70488;BME280;57976;48.174;16.370;2023-12-20T07:15:10;98941.36;;;9.23;78.43
70488;BME280;57976;48.174;16.370;2023-12-20T07:17:15;98949.58;;;9.23;76.87
70488;BME280;57976;48.174;16.370;2023-12-20T07:19:22;98959.92;;;9.23;76.46
70488;BME280;57976;48.174;16.370;2023-12-20T07:21:27;98963.81;;;9.25;76.61
70488;BME280;57976;48.174;16.370;2023-12-20T07:23:31;98964.59;;;9.26;77.49
70488;BME280;57976;48.174;16.370;2023-12-20T07:25:36;98969.63;;;9.25;76.80
70488;BME280;57976;48.174;16.370;2023-12-20T07:27:41;98982.67;;;9.27;77.50
70488;BME280;57976;48.174;16.370;2023-12-20T07:29:48;98982.88;;;9.28;76.66
70488;BME280;57976;48.174;16.370;2023-12-20T07:31:53;98995.91;;;9.26;76.58
70488;BME280;57976;48.174;16.370;2023-12-20T07:33:58;98991.58;;;9.25;77.58
70488;BME280;57976;48.174;16.370;2023-12-20T07:36:04;98999.13;;;9.20;77.76
70488;BME280;57976;48.174;16.370;2023-12-20T07:38:08;99017.02;;;9.14;79.22
70488;BME280;57976;48.174;16.370;2023-12-20T07:40:13;99010.78;;;9.07;79.48
70488;BME280;57976;48.174;16.370;2023-12-20T07:42:18;99019.50;;;8.99;80.04
70488;BME280;57976;48.174;16.370;2023-12-20T07:44:23;99022.98;;;8.93;80.32
70488;BME280;57976;48.174;16.370;2023-12-20T07:46:28;99019.68;;;8.87;80.52
70488;BME280;57976;48.174;16.370;2023-12-20T07:48:33;99023.09;;;8.82;81.51
70488;BME280;57976;48.174;16.370;2023-12-20T07:50:38;99014.50;;;8.79;81.12
70488;BME280;57976;48.174;16.370;2023-12-20T07:52:43;99014.00;;;8.78;81.48
70488;BME280;57976;48.174;16.370;2023-12-20T07:54:47;99001.16;;;8.77;81.42
70488;BME280;57976;48.174;16.370;2023-12-20T07:56:52;99001.54;;;8.77;81.18
70488;BME280;57976;48.174;16.370;2023-12-20T07:58:57;99005.92;;;8.74;81.55
70488;BME280;57976;48.174;16.370;2023-12-20T08:01:04;99002.73;;;8.71;82.20
70488;BME280;57976;48.174;16.370;2023-12-20T08:03:09;98998.11;;;8.63;83.04
70488;BME280;57976;48.174;16.370;2023-12-20T08:05:14;99004.35;;;8.55;83.46
70488;BME280;57976;48.174;16.370;2023-12-20T08:07:20;98997.77;;;8.51;83.37
70488;BME280;57976;48.174;16.370;2023-12-20T08:09:25;98998.59;;;8.46;83.98
70488;BME280;57976;48.174;16.370;2023-12-20T08:11:30;99005.02;;;8.43;84.43
70488;BME280;57976;48.174;16.370;2023-12-20T08:13:34;99020.93;;;8.40;84.33
70488;BME280;57976;48.174;16.370;2023-12-20T08:15:39;99017.14;;;8.37;84.74
70488;BME280;57976;48.174;16.370;2023-12-20T08:17:44;99027.18;;;8.36;84.93
70488;BME280;57976;48.174;16.370;2023-12-20T08:19:49;99015.02;;;8.35;84.80
70488;BME280;57976;48.174;16.370;2023-12-20T08:21:54;99018.97;;;8.34;84.85
70488;BME280;57976;48.174;16.370;2023-12-20T08:23:58;99015.96;;;8.32;84.75
70488;BME280;57976;48.174;16.370;2023-12-20T08:26:06;99020.63;;;8.32;84.58
70488;BME280;57976;48.174;16.370;2023-12-20T08:28:11;99018.67;;;8.32;85.02
70488;BME280;57976;48.174;16.370;2023-12-20T08:30:16;99012.58;;;8.32;84.90
70488;BME280;57976;48.174;16.370;2023-12-20T08:32:21;99009.48;;;8.32;84.47
70488;BME280;57976;48.174;16.370;2023-12-20T08:34:25;99013.52;;;8.31;84.54
70488;BME280;57976;48.174;16.370;2023-12-20T08:36:30;99021.45;;;8.32;84.60
70488;BME280;57976;48.174;16.370;2023-12-20T08:38:35;99020.67;;;8.33;84.51
70488;BME280;57976;48.174;16.370;2023-12-20T08:40:39;99021.79;;;8.34;84.40
70488;BME280;57976;48.174;16.370;2023-12-20T08:42:44;99027.70;;;8.33;84.14
70488;BME280;57976;48.174;16.370;2023-12-20T08:44:48;99039.97;;;8.35;84.22
70488;BME280;57976;48.174;16.370;2023-12-20T08:46:53;99026.86;;;8.36;84.30
70488;BME280;57976;48.174;16.370;2023-12-20T08:48:58;99033.23;;;8.36;84.25
70488;BME280;57976;48.174;16.370;2023-12-20T08:51:03;99043.03;;;8.35;84.15
70488;BME280;57976;48.174;16.370;2023-12-20T08:53:08;99052.26;;;8.36;84.01
70488;BME280;57976;48.174;16.370;2023-12-20T08:55:13;99048.76;;;8.37;83.79
70488;BME280;57976;48.174;16.370;2023-12-20T08:57:19;99056.85;;;8.38;83.88
70488;BME280;57976;48.174;16.370;2023-12-20T08:59:24;99056.91;;;8.36;84.17
70488;BME280;57976;48.174;16.370;2023-12-20T09:01:28;99058.45;;;8.35;84.33
70488;BME280;57976;48.174;16.370;2023-12-20T09:03:33;99068.08;;;8.34;84.43
70488;BME280;57976;48.174;16.370;2023-12-20T09:05:38;99081.05;;;8.32;84.32
70488;BME280;57976;48.174;16.370;2023-12-20T09:07:43;99073.71;;;8.32;84.47
70488;BME280;57976;48.174;16.370;2023-12-20T09:09:48;99070.76;;;8.31;84.81
70488;BME280;57976;48.174;16.370;2023-12-20T09:11:52;99097.27;;;8.33;85.08
70488;BME280;57976;48.174;16.370;2023-12-20T09:13:57;99069.23;;;8.34;85.15
70488;BME280;57976;48.174;16.370;2023-12-20T09:16:02;99072.73;;;8.33;85.39
70488;BME280;57976;48.174;16.370;2023-12-20T09:18:07;99082.61;;;8.32;86.06
70488;BME280;57976;48.174;16.370;2023-12-20T09:20:12;99078.73;;;8.33;86.53
70488;BME280;57976;48.174;16.370;2023-12-20T09:22:17;99071.46;;;8.32;86.55
70488;BME280;57976;48.174;16.370;2023-12-20T09:24:22;99073.77;;;8.30;87.31
70488;BME280;57976;48.174;16.370;2023-12-20T09:26:26;99077.55;;;8.28;87.74
70488;BME280;57976;48.174;16.370;2023-12-20T09:28:31;99074.27;;;8.26;88.53
70488;BME280;57976;48.174;16.370;2023-12-20T09:30:36;99073.77;;;8.26;89.22
70488;BME280;57976;48.174;16.370;2023-12-20T09:32:41;99077.25;;;8.24;89.70
70488;BME280;57976;48.174;16.370;2023-12-20T09:34:46;99081.27;;;8.24;89.61
70488;BME280;57976;48.174;16.370;2023-12-20T09:36:51;99085.34;;;8.22;89.63
70488;BME280;57976;48.174;16.370;2023-12-20T09:38:56;99086.99;;;8.18;89.98
70488;BME280;57976;48.174;16.370;2023-12-20T09:41:01;99081.11;;;8.17;89.96
70488;BME280;57976;48.174;16.370;2023-12-20T09:43:10;99078.19;;;8.15;90.27
70488;BME280;57976;48.174;16.370;2023-12-20T09:45:16;99084.34;;;8.13;91.38
70488;BME280;57976;48.174;16.370;2023-12-20T09:47:24;99085.70;;;8.09;91.89
70488;BME280;57976;48.174;16.370;2023-12-20T09:49:29;99093.73;;;8.04;93.14
70488;BME280;57976;48.174;16.370;2023-12-20T09:51:34;99087.84;;;7.99;93.61
70488;BME280;57976;48.174;16.370;2023-12-20T09:53:41;99099.25;;;7.94;94.42
70488;BME280;57976;48.174;16.370;2023-12-20T09:55:46;99083.64;;;7.86;95.48
70488;BME280;57976;48.174;16.370;2023-12-20T09:57:51;99074.59;;;7.74;96.33
70488;BME280;57976;48.174;16.370;2023-12-20T09:59:56;99093.55;;;7.65;97.42
70488;BME280;57976;48.174;16.370;2023-12-20T10:02:03;99078.41;;;7.57;99.15
70488;BME280;57976;48.174;16.370;2023-12-20T10:04:14;99085.92;;;7.48;99.17
70488;BME280;57976;48.174;16.370;2023-12-20T10:06:33;99076.77;;;7.38;99.92
70488;BME280;57976;48.174;16.370;2023-12-20T10:08:38;99083.98;;;7.31;100.00
70488;BME280;57976;48.174;16.370;2023-12-20T10:10:43;99085.71;;;7.23;100.00
70488;BME280;57976;48.174;16.370;2023-12-20T10:13:04;99068.30;;;7.15;100.00
70488;BME280;57976;48.174;16.370;2023-12-20T10:15:10;99077.66;;;7.08;100.00
70488;BME280;57976;48.174;16.370;2023-12-20T10:17:14;99056.77;;;7.02;100.00
70488;BME280;57976;48.174;16.370;2023-12-20T10:19:20;99061.88;;;7.00;100.00
70488;BME280;57976;48.174;16.370;2023-12-20T10:21:25;99053.90;;;6.98;100.00
70488;BME280;57976;48.174;16.370;2023-12-20T10:23:30;99047.42;;;6.98;100.00
70488;BME280;57976;48.174;16.370;2023-12-20T10:25:36;99057.33;;;6.98;100.00
70488;BME280;57976;48.174;16.370;2023-12-20T10:27:41;99050.34;;;6.99;100.00
70488;BME280;57976;48.174;16.370;2023-12-20T10:29:45;99029.14;;;6.99;100.00
70488;BME280;57976;48.174;16.370;2023-12-20T10:31:50;99040.17;;;7.01;100.00
70488;BME280;57976;48.174;16.370;2023-12-20T10:33:55;99045.90;;;7.03;100.00
70488;BME280;57976;48.174;16.370;2023-12-20T10:36:00;99032.88;;;7.04;100.00
70488;BME280;57976;48.174;16.370;2023-12-20T10:38:06;99027.48;;;7.06;100.00
70488;BME280;57976;48.174;16.370;2023-12-20T10:40:12;99026.02;;;7.10;100.00
70488;BME280;57976;48.174;16.370;2023-12-20T10:42:17;99026.29;;;7.12;100.00
70488;BME280;57976;48.174;16.370;2023-12-20T10:44:22;99028.59;;;7.15;100.00
70488;BME280;57976;48.174;16.370;2023-12-20T10:46:27;99030.19;;;7.15;100.00
70488;BME280;57976;48.174;16.370;2023-12-20T10:48:33;99036.45;;;7.20;100.00
70488;BME280;57976;48.174;16.370;2023-12-20T10:50:39;99031.15;;;7.23;100.00
70488;BME280;57976;48.174;16.370;2023-12-20T10:52:45;99022.08;;;7.26;100.00
70488;BME280;57976;48.174;16.370;2023-12-20T10:54:51;99023.55;;;7.30;100.00
70488;BME280;57976;48.174;16.370;2023-12-20T10:56:58;99019.02;;;7.32;100.00
70488;BME280;57976;48.174;16.370;2023-12-20T10:59:04;99015.34;;;7.32;100.00
70488;BME280;57976;48.174;16.370;2023-12-20T11:01:12;99014.77;;;7.34;100.00